Championnats de Nationale 2 d'été

Compétition Interrégionale

GRAND-COURONNE

Du Vendredi 08 Juillet 2016 au Dimanche 10 Juillet 2016

Bassin de 50m

50 Dos Dames

Finale A

Nom Année Temps Pts Club Pays
1 BERSOT Lucie 1999 0:31:40 1225 C REDON NATATION FRA
2 LABEQUE Carla 2001 0:31:92 1194 AQUATIC CLUB BOURGES FRA
3 VANDEWEGHE Manon 2001 0:32:30 1171 CHALLANS NATATION FRA
4 GAUTIER Klervi 2002 0:32:32 1170 CN GUINGAMP FRA
5 VILLETTE Margot 1999 0:32:53 1158 OCTEVILLE NATATION FRA
6 PINATON Maud 2002 0:32:64 1151 LA NAT'SUZERAINE FRA
7 JOLLY Melhya 1997 0:32:75 1145 SALBRIS NATATION FRA
8 ORMIERES Séphora 2002 0:33:12 1123 CN BREST FRA

Finale B

Nom Année Temps Pts Club Pays
1 MALFER Daïka 2001 0:32:62 1152 LORIENT NATATION FRA
2 BLONDEL Marylou 2000 0:32:99 1131 ES FALAISE FRA
3 REMY Cassiopee 2001 0:33:03 1129 ANDELLE NATATION FRA
4 VAIDIE Jade 2001 0:33:14 1122 ANGERS NATATION FRA
5 WEYD Esther 1998 0:33:24 1116 LA ROCHE-SUR-YON NATATION FRA
6 ROBILLARD Claire 2000 0:33:24 1116 OCTEVILLE NATATION FRA
7 BREDIF Claire 2001 0:33:72 1089 JOUÉ NATATION FRA
8 LE FLOCH Nina 2000 0:33:82 1083 LES NAGEURS BIGOUDENS FRA

Finale C

Nom Année Temps Pts Club Pays
1 LEMONNIER-MURARI Emma 2001 0:32:52 1158 OCTEVILLE NATATION FRA
2 MHUN Lena 2001 0:32:73 1146 ECN CHARTRES-DE-BRETAGNE FRA
3 CORN Alicia 2002 0:33:06 1127 AQUATIC CLUB BOURGES FRA
4 CORVAISIER Louise 2002 0:33:14 1122 ANGERS NATATION FRA
5 VILLETTE Zoé 2002 0:33:20 1119 OCTEVILLE NATATION FRA
6 BOLUT Pauline 2001 0:33:31 1112 LA ROCHE-SUR-YON NATATION FRA
7 TOUZÉ Lénaïck 2001 0:33:40 1107 ESPÉRANCE VAILLANTE GRANVILLE FRA
8 BESNARD Auriane 2001 0:33:71 1090 CHARTRES METROPOLE NAT FRA

Séries

Nom Année Temps Pts Club Pays
1 BERSOT Lucie 1999 0:31:68 1208 C REDON NATATION FRA
2 VANDEWEGHE Manon 2001 0:32:41 1165 CHALLANS NATATION FRA
3 LABEQUE Carla 2001 0:32:70 1148 AQUATIC CLUB BOURGES FRA
4 DAUVIN Pauline 2000 0:32:70 1148 CN COUTANCES FRA
5 VILLETTE Margot 1999 0:32:89 1137 OCTEVILLE NATATION FRA
6 GAUTIER Klervi 2002 0:32:93 1134 CN GUINGAMP FRA
7 JOLLY Melhya 1997 0:32:97 1132 SALBRIS NATATION FRA
8 ORMIERES Séphora 2002 0:33:07 1126 CN BREST FRA
9 PINATON Maud 2002 0:33:25 1116 LA NAT'SUZERAINE FRA
10 REMY Cassiopee 2001 0:33:28 1114 ANDELLE NATATION FRA
11 WEYD Esther 1998 0:33:30 1113 LA ROCHE-SUR-YON NATATION FRA
12 BREDIF Claire 2001 0:33:39 1108 JOUÉ NATATION FRA
13 BLONDEL Marylou 2000 0:33:39 1108 ES FALAISE FRA
14 MALFER Daïka 2001 0:33:41 1107 LORIENT NATATION FRA
15 VAIDIE Jade 2001 0:33:42 1106 ANGERS NATATION FRA
16 LE FLOCH Nina 2000 0:33:49 1102 LES NAGEURS BIGOUDENS FRA
17 ROBILLARD Claire 2000 0:33:52 1100 OCTEVILLE NATATION FRA
18 VILLON Nihèle 2000 0:33:54 1099 EN CAEN FRA
19 DREANO Sarah 2000 0:33:56 1098 UN PLOËRMEL FRA
20 DENNETIERE Syana 1997 0:33:58 1097 EVREUX A.L.M.NATATION FRA
21 VILLETTE Zoé 2002 0:33:61 1095 OCTEVILLE NATATION FRA
22 CORN Alicia 2002 0:33:63 1094 AQUATIC CLUB BOURGES FRA
23 BRUNET Claire 1999 0:33:66 1092 CN LE MANS FRA
24 MHUN Lena 2001 0:33:68 1091 ECN CHARTRES-DE-BRETAGNE FRA
25 LEMONNIER-MURARI Emma 2001 0:33:68 1091 OCTEVILLE NATATION FRA
26 CORVAISIER Louise 2002 0:33:74 1088 ANGERS NATATION FRA
27 BESLIC Maelle 1999 0:33:74 1088 DOUARNENEZ NATATION FRA
28 HEAUME Hélène 1999 0:33:79 1085 ESPADON GRAND-QUEVILLY FRA
29 PICOCHE Anne 2000 0:33:82 1083 CN BREST FRA
30 BESNARD Auriane 2001 0:33:82 1083 CHARTRES METROPOLE NAT FRA
31 TOUZÉ Lénaïck 2001 0:33:89 1079 ESPÉRANCE VAILLANTE GRANVILLE FRA
32 BOLUT Pauline 2001 0:33:90 1079 LA ROCHE-SUR-YON NATATION FRA
33 LEBRETON Anais 1999 0:33:90 1079 COMBOURG NATATION FRA
34 BRISARD Oceane 1998 0:33:92 1078 ALENÇON NC FRA
35 LEMIRE Inola 2001 0:33:95 1076 CNM DIEPPE FRA
36 BLONER Cybille 1999 0:34:07 1069 CHARTRES METROPOLE NAT FRA
37 JIGOREL Flavie 2001 0:34:17 1064 CHALLANS NATATION FRA
38 CHAMPAGNE Marie 2000 0:34:19 1062 CHARTRES METROPOLE NAT FRA
39 WOIRIN Solenn 2001 0:34:28 1057 CN BREST FRA
40 BOUREL Justine 1998 0:34:32 1055 LANNION NATATION FRA
41 CHEFDOR Anne-Louise 1999 0:34:38 1052 UN PLOËRMEL FRA
42 AUBARD Ambrine 2001 0:34:40 1051 ASN BONNEVAL FRA
43 DUPRE Sarah 2001 0:34:40 1051 ECN CHARTRES-DE-BRETAGNE FRA
44 ROBLIN Caroline 1994 0:34:46 1047 CHARTRES METROPOLE NAT FRA
45 PHAN Tamara 2000 0:34:51 1044 LA ROCHE-SUR-YON NATATION FRA
46 ABIVEN Camille 2001 0:34:60 1039 LANNION NATATION FRA
47 DUMONT Lena 2001 0:34:62 1038 C.N DE VALLEE DE SEINE FRA
48 JOSSELIN Victoire 2002 0:34:67 1036 CN BREST FRA
49 ROZUEL Claire 2001 0:34:72 1033 CN BREST FRA
50 DUPONT Elisa 2002 0:34:80 1028 OCTEVILLE NATATION FRA
51 CROCHEZ Alyssia 2001 0:34:81 1028 C VIKINGS DE ROUEN FRA
52 DENIEUL Catinca 2002 0:34:84 1026 C PAUL-BERT RENNES FRA
53 GALLANT Félicie 2002 0:34:86 1025 LA ROCHE-SUR-YON NATATION FRA
54 TROCHET Annagwen 2000 0:34:91 1022 C REDON NATATION FRA
55 DUBOS Chloé 2001 0:34:99 1018 SC BERNAY NATATION FRA
56 BERNA--SEYFRITZ Clémence 2002 0:35:03 1016 CLUB DAUPHINS LE BLANC FRA
57 LEROY Lucie 2000 0:35:07 1014 C.N DE VALLEE DE SEINE FRA
58 FERRON Berangere 2002 0:35:10 1012 NAUTIC CLUB VOVES FRA
59 LE MAUFF Juliette 2001 0:35:16 1009 COMBOURG NATATION FRA
60 COUPLIERE Keriwenn 2001 0:35:21 1006 COMBOURG NATATION FRA
61 MONNET Anais 1999 0:35:27 1003 ASPTT ORLÉANS FRA
62 LAMBERT Laura 2000 0:35:33 999 ST-MALO NATATION FRA
63 FOLTZ Marion 1997 0:35:33 999 JOUÉ NATATION FRA
64 PECH Meggane 2002 0:35:36 998 CN BREST FRA
65 DAGUIER Laurine 2000 0:35:42 994 CNP DE SAINT-LO FRA
66 BLAI Claire 2000 0:35:42 994 UN PLOËRMEL FRA
67 MADRELLE Amandine 2000 0:35:52 989 US VENDÔME FRA
68 LAROUR Jeanne 2002 0:35:52 989 ST-NAZAIRE ATLANTIQUE NATATION FRA
69 LEPAUMIER Aude 2002 0:35:62 984 CN COUTANCES FRA
70 GAIGNON Léna 2001 0:35:66 981 CN FOUGÈRES FRA
71 SADRAOUI Lyna 2002 0:35:74 977 CERCLE DES NAGEURS ST-BRIEUC FRA
72 CAMUS Laure 2001 0:35:97 965 CERCLE DES NAGEURS SITTELIA FRA
73 COTINEAU Gaby 2001 0:36:69 927 A.S GOURNAISIENNE FRA
74 BEZIER Mayliss 2002 0:36:88 917 ST-NAZAIRE ATLANTIQUE NATATION FRA
75 YTHIER Léa 2002 0:37:29 895 VIERZON NATATION FRA
SAUMUR NATATION